createdAt,value
2023-03-13T00:00:54.516Z,26.32
2023-03-13T00:01:54.536Z,26.36
2023-03-13T00:02:54.512Z,26.33
2023-03-13T00:03:54.516Z,26.32
2023-03-13T00:04:54.583Z,26.35
2023-03-13T00:05:54.515Z,26.25
2023-03-13T00:06:54.506Z,26.30
2023-03-13T00:07:54.515Z,26.25
2023-03-13T00:08:54.510Z,26.32
2023-03-13T00:09:54.541Z,26.18
2023-03-13T00:10:54.503Z,26.25
2023-03-13T00:11:54.524Z,26.29
2023-03-13T00:12:54.501Z,26.25
2023-03-13T00:13:54.511Z,26.26
2023-03-13T00:14:54.500Z,26.32
2023-03-13T00:15:54.509Z,26.33
2023-03-13T00:16:54.634Z,26.30
2023-03-13T00:17:54.506Z,26.29
2023-03-13T00:18:54.511Z,26.18
2023-03-13T00:19:54.510Z,26.30
2023-03-13T00:20:54.501Z,26.26
2023-03-13T00:21:54.504Z,26.35
2023-03-13T00:22:54.495Z,26.29
2023-03-13T00:23:54.517Z,26.36
2023-03-13T00:24:54.495Z,26.43
2023-03-13T00:25:54.525Z,26.25
2023-03-13T00:26:54.494Z,26.25
2023-03-13T00:27:54.500Z,26.26
2023-03-13T00:28:54.494Z,26.32
2023-03-13T00:29:54.498Z,26.30
2023-03-13T00:30:54.554Z,26.30
2023-03-13T00:31:54.540Z,26.29
2023-03-13T00:32:54.538Z,26.29
2023-03-13T00:33:54.496Z,26.25
2023-03-13T00:34:54.493Z,26.26
2023-03-13T00:35:54.548Z,26.21
2023-03-13T00:36:54.489Z,26.32
2023-03-13T00:37:54.500Z,26.29
2023-03-13T00:38:54.500Z,26.30
2023-03-13T00:39:54.502Z,26.33
2023-03-13T00:40:54.492Z,26.30
2023-03-13T00:41:54.539Z,26.28
2023-03-13T00:42:54.487Z,26.20
2023-03-13T00:43:54.492Z,26.26
2023-03-13T00:44:54.483Z,26.32
2023-03-13T00:45:54.609Z,26.18
2023-03-13T00:46:54.483Z,26.20
2023-03-13T00:47:54.489Z,26.30
2023-03-13T00:48:54.485Z,26.29
2023-03-13T00:49:54.487Z,26.25
2023-03-13T00:50:54.481Z,26.33
2023-03-13T00:51:54.489Z,26.25
2023-03-13T00:52:54.480Z,26.26
2023-03-13T00:53:54.487Z,26.25
2023-03-13T00:54:54.477Z,26.30
2023-03-13T00:55:54.487Z,26.28
2023-03-13T00:56:54.485Z,26.32
2023-03-13T00:57:54.501Z,26.36
2023-03-13T00:58:54.493Z,26.23
2023-03-13T00:59:54.477Z,26.18
2023-03-13T01:00:54.487Z,26.30
2023-03-13T01:01:54.485Z,26.35
2023-03-13T01:02:54.651Z,26.29
2023-03-13T01:03:54.479Z,26.25
2023-03-13T01:04:54.488Z,26.30
2023-03-13T01:05:54.477Z,26.29
2023-03-13T01:06:54.485Z,26.33
2023-03-13T01:07:54.478Z,26.36
2023-03-13T01:08:54.483Z,26.25
2023-03-13T01:09:54.490Z,26.36
2023-03-13T01:10:54.484Z,26.23
2023-03-13T01:11:54.477Z,26.21
2023-03-13T01:12:54.482Z,26.32
2023-03-13T01:13:54.516Z,26.23
2023-03-13T01:14:54.488Z,26.28
2023-03-13T01:15:54.554Z,26.32
2023-03-13T01:16:54.483Z,26.30
2023-03-13T01:17:54.473Z,26.20
2023-03-13T01:18:54.483Z,26.33
2023-03-13T01:19:54.476Z,26.23
2023-03-13T01:20:54.479Z,26.30
2023-03-13T01:21:54.472Z,26.33
2023-03-13T01:22:54.479Z,26.32
2023-03-13T01:23:54.476Z,26.29
2023-03-13T01:24:54.478Z,26.32
2023-03-13T01:25:54.471Z,26.32
2023-03-13T01:26:54.480Z,26.35
2023-03-13T01:27:54.474Z,26.30
2023-03-13T01:28:54.476Z,26.32
2023-03-13T01:29:54.499Z,26.32
2023-03-13T01:30:54.571Z,26.29
2023-03-13T01:31:54.470Z,26.35
2023-03-13T01:32:54.535Z,26.26
2023-03-13T01:33:54.493Z,26.30
2023-03-13T01:34:54.475Z,26.29
2023-03-13T01:35:54.575Z,26.20
2023-03-13T01:36:54.476Z,26.23
2023-03-13T01:37:54.467Z,26.29
2023-03-13T01:38:54.487Z,26.21
2023-03-13T01:39:54.467Z,26.33
2023-03-13T01:40:54.472Z,26.32
2023-03-13T01:41:54.464Z,26.25
2023-03-13T01:42:54.503Z,26.29
2023-03-13T01:43:54.465Z,26.32
2023-03-13T01:44:54.471Z,26.23
2023-03-13T01:45:54.539Z,26.28
2023-03-13T01:46:54.469Z,26.29
2023-03-13T01:47:54.460Z,26.32
2023-03-13T01:48:54.467Z,26.26
2023-03-13T01:49:54.472Z,26.32
2023-03-13T01:50:54.466Z,26.29
2023-03-13T01:51:54.458Z,26.26
2023-03-13T01:52:54.465Z,26.25
2023-03-13T01:53:54.456Z,26.26
2023-03-13T01:54:54.475Z,26.26
2023-03-13T01:55:54.457Z,26.33
2023-03-13T01:56:54.465Z,26.30
2023-03-13T01:57:54.479Z,26.32
2023-03-13T01:58:54.465Z,26.32
2023-03-13T01:59:54.462Z,26.26
2023-03-13T02:00:54.461Z,26.30
2023-03-13T02:01:54.620Z,26.30
2023-03-13T02:02:54.499Z,26.25
2023-03-13T02:03:54.455Z,26.29
2023-03-13T02:04:54.466Z,26.29
2023-03-13T02:05:54.465Z,26.30
2023-03-13T02:06:54.460Z,26.30
2023-03-13T02:07:54.453Z,26.32
2023-03-13T02:08:54.461Z,26.32
2023-03-13T02:09:54.454Z,26.28
2023-03-13T02:10:54.460Z,26.28
2023-03-13T02:11:54.451Z,26.25
2023-03-13T02:12:54.456Z,26.33
2023-03-13T02:13:54.450Z,26.33
2023-03-13T02:14:54.454Z,26.23
2023-03-13T02:15:54.508Z,26.26
2023-03-13T02:16:54.454Z,26.28
2023-03-13T02:17:54.474Z,26.18
2023-03-13T02:18:54.451Z,26.26
2023-03-13T02:19:54.450Z,26.30
2023-03-13T02:20:54.456Z,26.18
2023-03-13T02:21:54.463Z,26.26
2023-03-13T02:22:54.448Z,26.33
2023-03-13T02:23:54.440Z,26.26
2023-03-13T02:24:54.450Z,26.25
2023-03-13T02:25:54.451Z,26.30
2023-03-13T02:26:54.447Z,26.30
2023-03-13T02:27:54.439Z,26.33
2023-03-13T02:28:54.466Z,26.29
2023-03-13T02:29:54.449Z,26.35
2023-03-13T02:30:54.456Z,26.26
2023-03-13T02:31:54.471Z,26.28
2023-03-13T02:32:54.481Z,26.29
2023-03-13T02:33:54.471Z,26.25
2023-03-13T02:34:54.447Z,26.29
2023-03-13T02:35:54.521Z,26.25
2023-03-13T02:36:54.439Z,26.20
2023-03-13T02:37:54.446Z,26.26
2023-03-13T02:38:54.438Z,26.32
2023-03-13T02:39:54.443Z,26.30
2023-03-13T02:40:54.453Z,26.29
2023-03-13T02:41:54.444Z,26.21
2023-03-13T02:42:54.445Z,26.28
2023-03-13T02:43:54.430Z,26.32
2023-03-13T02:44:54.465Z,26.29
2023-03-13T02:45:54.435Z,26.28
2023-03-13T02:46:54.553Z,26.32
2023-03-13T02:47:54.443Z,26.26
2023-03-13T02:48:54.437Z,26.28
2023-03-13T02:49:54.465Z,26.29
2023-03-13T02:50:54.440Z,26.17
2023-03-13T02:51:54.432Z,26.32
2023-03-13T02:52:54.438Z,26.25
2023-03-13T02:53:54.429Z,26.29
2023-03-13T02:54:54.445Z,26.28
2023-03-13T02:55:54.432Z,26.20
2023-03-13T02:56:54.441Z,26.17
2023-03-13T02:57:54.440Z,26.29
2023-03-13T02:58:54.437Z,26.25
2023-03-13T02:59:54.440Z,26.30
2023-03-13T03:00:54.471Z,26.23
2023-03-13T03:01:54.432Z,26.32
2023-03-13T03:02:54.479Z,26.29
2023-03-13T03:03:54.480Z,26.23
2023-03-13T03:04:54.434Z,26.29
2023-03-13T03:05:54.451Z,26.28
2023-03-13T03:06:54.435Z,26.20
2023-03-13T03:07:54.433Z,26.25
2023-03-13T03:08:54.450Z,26.20
2023-03-13T03:09:54.425Z,26.25
2023-03-13T03:10:54.438Z,26.28
2023-03-13T03:11:54.426Z,26.20
2023-03-13T03:12:54.430Z,26.29
2023-03-13T03:13:54.424Z,26.28
2023-03-13T03:14:54.435Z,26.28
2023-03-13T03:15:54.424Z,26.20
2023-03-13T03:16:54.430Z,26.20
2023-03-13T03:17:54.422Z,26.23
2023-03-13T03:18:54.428Z,26.28
2023-03-13T03:19:54.418Z,26.20
2023-03-13T03:20:54.424Z,26.29
2023-03-13T03:21:54.442Z,26.20
2023-03-13T03:22:54.423Z,26.28
2023-03-13T03:23:54.414Z,26.32
2023-03-13T03:24:54.420Z,26.26
2023-03-13T03:25:54.412Z,26.29
2023-03-13T03:26:54.425Z,26.23
2023-03-13T03:27:54.411Z,26.29
2023-03-13T03:28:54.418Z,26.21
2023-03-13T03:29:54.407Z,26.21
2023-03-13T03:30:54.421Z,26.29
2023-03-13T03:31:54.505Z,26.29
2023-03-13T03:32:54.510Z,26.26
2023-03-13T03:33:54.407Z,26.28
2023-03-13T03:34:54.423Z,26.26
2023-03-13T03:35:54.448Z,26.30
2023-03-13T03:36:54.411Z,26.25
2023-03-13T03:37:54.430Z,26.26
2023-03-13T03:38:54.409Z,26.32
2023-03-13T03:39:54.406Z,26.26
2023-03-13T03:40:54.407Z,26.21
2023-03-13T03:41:54.404Z,26.30
2023-03-13T03:42:54.405Z,26.20
2023-03-13T03:43:54.397Z,26.20
2023-03-13T03:44:54.403Z,26.26
2023-03-13T03:45:54.420Z,26.23
2023-03-13T03:46:54.483Z,26.21
2023-03-13T03:47:54.398Z,26.21
2023-03-13T03:48:54.401Z,26.28
2023-03-13T03:49:54.401Z,26.20
2023-03-13T03:50:54.403Z,26.30
2023-03-13T03:51:54.393Z,26.25
2023-03-13T03:52:54.399Z,26.32
2023-03-13T03:53:54.427Z,26.28
2023-03-13T03:54:54.400Z,26.28
2023-03-13T03:55:54.396Z,26.28
2023-03-13T03:56:54.401Z,26.21
2023-03-13T03:57:54.392Z,26.20
2023-03-13T03:58:54.399Z,26.23
2023-03-13T03:59:54.392Z,26.20
2023-03-13T04:00:54.401Z,26.29
2023-03-13T04:01:54.449Z,26.25
2023-03-13T04:02:54.508Z,26.28
2023-03-13T04:03:54.398Z,26.36
2023-03-13T04:04:54.398Z,26.30
2023-03-13T04:05:54.391Z,26.32
2023-03-13T04:06:54.399Z,26.25
2023-03-13T04:07:54.395Z,26.21
2023-03-13T04:08:54.399Z,26.28
2023-03-13T04:09:54.415Z,26.20
2023-03-13T04:10:54.402Z,26.23
2023-03-13T04:11:54.392Z,26.35
2023-03-13T04:12:54.401Z,26.29
2023-03-13T04:13:54.388Z,26.29
2023-03-13T04:14:54.419Z,26.32
2023-03-13T04:15:54.392Z,26.26
2023-03-13T04:16:54.479Z,26.26
2023-03-13T04:17:54.406Z,26.32
2023-03-13T04:18:54.409Z,26.29
2023-03-13T04:19:54.387Z,26.25
2023-03-13T04:20:54.397Z,26.32
2023-03-13T04:21:54.392Z,26.28
2023-03-13T04:22:54.393Z,26.29
2023-03-13T04:23:54.393Z,26.32
2023-03-13T04:24:54.393Z,26.33
2023-03-13T04:25:54.406Z,26.26
2023-03-13T04:26:54.390Z,26.28
2023-03-13T04:27:54.398Z,26.26
2023-03-13T04:28:54.394Z,26.25
2023-03-13T04:29:54.381Z,26.20
2023-03-13T04:30:54.417Z,26.30
2023-03-13T04:31:54.380Z,26.20
2023-03-13T04:32:54.514Z,26.20
2023-03-13T04:33:54.385Z,26.23
2023-03-13T04:34:54.426Z,26.32
2023-03-13T04:35:54.409Z,26.32
2023-03-13T04:36:54.384Z,26.30
2023-03-13T04:37:54.377Z,26.29
2023-03-13T04:38:54.385Z,26.26
2023-03-13T04:39:54.378Z,26.23
2023-03-13T04:40:54.383Z,26.26
2023-03-13T04:41:54.402Z,26.25
2023-03-13T04:42:54.388Z,26.25
2023-03-13T04:43:54.376Z,26.20
2023-03-13T04:44:54.383Z,26.21
2023-03-13T04:45:54.455Z,26.30
2023-03-13T04:46:54.407Z,26.29
2023-03-13T04:47:54.380Z,26.28
2023-03-13T04:48:54.380Z,26.20
2023-03-13T04:49:54.378Z,26.25
2023-03-13T04:50:54.378Z,26.30
2023-03-13T04:51:54.371Z,26.26
2023-03-13T04:52:54.376Z,26.26
2023-03-13T04:53:54.373Z,26.26
2023-03-13T04:54:54.377Z,26.28
2023-03-13T04:55:54.367Z,26.28
2023-03-13T04:56:54.377Z,26.23
2023-03-13T04:57:54.455Z,26.21
2023-03-13T04:58:54.385Z,26.33
2023-03-13T04:59:54.375Z,26.21
2023-03-13T05:00:54.372Z,26.25
2023-03-13T05:01:54.411Z,26.26
2023-03-13T05:02:54.371Z,26.30
2023-03-13T05:03:54.364Z,26.32
2023-03-13T05:04:54.422Z,26.20
2023-03-13T05:05:54.371Z,26.29
2023-03-13T05:06:54.374Z,26.21
2023-03-13T05:07:54.369Z,26.29
2023-03-13T05:08:54.369Z,26.29
2023-03-13T05:09:54.360Z,26.26
2023-03-13T05:10:54.369Z,26.33
2023-03-13T05:11:55.584Z,26.29
2023-03-13T05:12:54.360Z,26.25
2023-03-13T05:13:54.405Z,26.18
2023-03-13T05:14:54.362Z,26.30
2023-03-13T05:15:54.395Z,26.28
2023-03-13T05:16:54.357Z,26.30
2023-03-13T05:17:54.868Z,26.29
2023-03-13T05:18:54.355Z,26.30
2023-03-13T05:19:54.363Z,26.21
2023-03-13T05:20:54.354Z,26.23
2023-03-13T05:21:54.363Z,26.23
2023-03-13T05:22:54.353Z,26.36
2023-03-13T05:23:54.362Z,26.30
2023-03-13T05:24:54.353Z,26.20
2023-03-13T05:25:54.359Z,26.29
2023-03-13T05:26:54.352Z,26.28
2023-03-13T05:27:54.365Z,26.23
2023-03-13T05:28:54.353Z,26.23
2023-03-13T05:29:54.383Z,26.23
2023-03-13T05:30:54.450Z,26.20
2023-03-13T05:31:54.360Z,26.30
2023-03-13T05:32:54.396Z,26.32
2023-03-13T05:33:54.367Z,26.28
2023-03-13T05:34:54.353Z,26.29
2023-03-13T05:35:54.452Z,26.28
2023-03-13T05:36:54.452Z,26.28
2023-03-13T05:37:54.355Z,26.21
2023-03-13T05:38:54.348Z,26.25
2023-03-13T05:39:54.354Z,26.21
2023-03-13T05:40:54.350Z,26.23
2023-03-13T05:41:54.352Z,26.25
2023-03-13T05:42:54.348Z,26.25
2023-03-13T05:43:54.352Z,26.26
2023-03-13T05:44:54.342Z,26.20
2023-03-13T05:45:54.371Z,26.26
2023-03-13T05:46:54.441Z,26.26
2023-03-13T05:47:54.351Z,26.25
2023-03-13T05:48:54.340Z,26.25
2023-03-13T05:49:54.353Z,26.23
2023-03-13T05:50:54.339Z,26.20
2023-03-13T05:51:54.353Z,26.23
2023-03-13T05:52:54.338Z,26.25
2023-03-13T05:53:54.344Z,26.26
2023-03-13T05:54:54.337Z,26.26
2023-03-13T05:55:54.359Z,26.21
2023-03-13T05:56:54.336Z,26.28
2023-03-13T05:57:54.347Z,26.30
2023-03-13T05:58:54.333Z,26.25
2023-03-13T05:59:54.358Z,26.20
2023-03-13T06:00:54.329Z,26.30
2023-03-13T06:01:54.360Z,26.29
2023-03-13T06:02:54.329Z,26.21
2023-03-13T06:03:54.468Z,26.20
2023-03-13T06:04:54.574Z,26.32
2023-03-13T06:05:54.349Z,26.30
2023-03-13T06:06:54.325Z,26.29
2023-03-13T06:07:54.335Z,26.26
2023-03-13T06:08:54.334Z,26.29
2023-03-13T06:09:54.347Z,26.29
2023-03-13T06:10:54.320Z,26.35
2023-03-13T06:11:54.357Z,26.35
2023-03-13T06:12:54.331Z,26.26
2023-03-13T06:13:54.331Z,26.30
2023-03-13T06:14:54.320Z,26.37
2023-03-13T06:15:54.400Z,26.36
2023-03-13T06:16:54.315Z,26.28
2023-03-13T06:17:54.362Z,26.36
2023-03-13T06:18:54.314Z,26.39
2023-03-13T06:19:54.325Z,26.37
2023-03-13T06:20:54.315Z,26.44
2023-03-13T06:21:54.370Z,26.47
2023-03-13T06:22:54.324Z,26.45
2023-03-13T06:23:54.321Z,26.45
2023-03-13T06:24:54.313Z,26.33
2023-03-13T06:25:54.333Z,26.50
2023-03-13T06:26:54.313Z,26.57
2023-03-13T06:27:54.318Z,26.50
2023-03-13T06:28:54.312Z,26.40
2023-03-13T06:29:54.331Z,26.47
2023-03-13T06:30:54.314Z,26.55
2023-03-13T06:31:54.488Z,26.57
2023-03-13T06:32:54.455Z,26.60
2023-03-13T06:33:54.369Z,26.50
2023-03-13T06:34:55.310Z,26.57
2023-03-13T06:35:56.922Z,26.55
2023-03-13T06:36:54.308Z,26.55
2023-03-13T06:37:54.342Z,26.62
2023-03-13T06:38:54.307Z,26.70
2023-03-13T06:39:54.315Z,26.66
2023-03-13T06:40:54.311Z,26.66
2023-03-13T06:41:54.335Z,26.62
2023-03-13T06:42:54.309Z,26.67
2023-03-13T06:43:54.315Z,26.77
2023-03-13T06:44:54.323Z,26.76
2023-03-13T06:45:54.314Z,26.66
2023-03-13T06:46:54.350Z,26.66
2023-03-13T06:47:54.313Z,26.70
2023-03-13T06:48:54.315Z,26.72
2023-03-13T06:49:54.344Z,26.77
2023-03-13T06:50:54.338Z,26.77
2023-03-13T06:51:54.316Z,26.77
2023-03-13T06:52:54.305Z,26.75
2023-03-13T06:53:54.326Z,26.73
2023-03-13T06:54:54.312Z,26.77
2023-03-13T06:55:54.313Z,26.76
2023-03-13T06:56:54.310Z,26.81
2023-03-13T06:57:54.320Z,26.82
2023-03-13T06:58:54.304Z,26.81
2023-03-13T06:59:54.313Z,26.85
2023-03-13T07:00:54.445Z,26.85
2023-03-13T07:01:54.311Z,26.89
2023-03-13T07:02:54.312Z,26.91
2023-03-13T07:03:54.402Z,26.97
2023-03-13T07:04:54.307Z,26.97
2023-03-13T07:05:54.341Z,26.94
2023-03-13T07:06:54.312Z,26.99
2023-03-13T07:07:54.317Z,26.99
2023-03-13T07:08:54.309Z,26.97
2023-03-13T07:09:54.317Z,26.92
2023-03-13T07:10:54.312Z,26.95
2023-03-13T07:11:54.318Z,27.06
2023-03-13T07:12:54.314Z,26.92
2023-03-13T07:14:00.490Z,27.06
2023-03-13T07:14:54.313Z,26.95
2023-03-13T07:15:54.320Z,27.04
2023-03-13T07:16:54.475Z,27.07
2023-03-13T07:17:54.318Z,27.03
2023-03-13T07:18:54.330Z,27.03
2023-03-13T07:19:54.376Z,27.10
2023-03-13T07:20:54.321Z,27.12
2023-03-13T07:21:54.339Z,27.13
2023-03-13T07:22:54.310Z,27.12
2023-03-13T07:23:54.320Z,27.10
2023-03-13T07:24:54.352Z,27.13
2023-03-13T07:25:54.320Z,27.18
2023-03-13T07:27:04.926Z,27.17
2023-03-13T07:27:54.323Z,27.21
2023-03-13T07:28:54.313Z,27.14
2023-03-13T07:29:54.330Z,27.17
2023-03-13T07:30:54.318Z,27.13
2023-03-13T07:31:54.387Z,27.17
2023-03-13T07:32:54.388Z,27.22
2023-03-13T07:33:54.340Z,27.14
2023-03-13T07:34:54.313Z,27.25
2023-03-13T07:35:54.320Z,27.14
2023-03-13T07:36:54.314Z,27.21
2023-03-13T07:37:54.344Z,27.18
2023-03-13T07:38:54.317Z,27.21
2023-03-13T07:39:54.321Z,27.21
2023-03-13T07:40:54.313Z,27.25
2023-03-13T07:41:54.319Z,27.24
2023-03-13T07:42:54.312Z,27.24
2023-03-13T07:43:54.321Z,27.21
2023-03-13T07:44:54.312Z,27.29
2023-03-13T07:45:54.397Z,27.28
2023-03-13T07:46:54.312Z,27.21
2023-03-13T07:47:54.321Z,27.19
2023-03-13T07:48:54.314Z,27.24
2023-03-13T07:49:54.392Z,27.22
2023-03-13T07:50:54.312Z,27.31
2023-03-13T07:51:54.332Z,27.24
2023-03-13T07:52:54.433Z,27.21
2023-03-13T07:53:54.347Z,27.27
2023-03-13T07:54:54.313Z,27.28
2023-03-13T07:55:54.329Z,27.24
2023-03-13T07:56:54.311Z,27.25
2023-03-13T07:57:54.321Z,27.36
2023-03-13T07:58:54.312Z,27.29
2023-03-13T07:59:54.329Z,27.24
2023-03-13T08:00:54.343Z,27.29
2023-03-13T08:01:54.371Z,27.28
2023-03-13T08:02:54.378Z,27.18
2023-03-13T08:03:54.405Z,27.18
2023-03-13T08:04:54.312Z,27.22
2023-03-13T08:05:54.323Z,27.19
2023-03-13T08:06:54.313Z,27.25
2023-03-13T08:07:54.322Z,27.24
2023-03-13T08:08:54.313Z,27.27
2023-03-13T08:09:54.341Z,27.25
2023-03-13T08:10:54.315Z,27.24
2023-03-13T08:11:54.322Z,27.22
2023-03-13T08:12:54.314Z,27.22
2023-03-13T08:13:54.337Z,27.22
2023-03-13T08:14:54.318Z,27.25
2023-03-13T08:15:54.324Z,27.14
2023-03-13T08:16:54.369Z,27.14
2023-03-13T08:17:54.321Z,27.24
2023-03-13T08:18:54.316Z,27.14
2023-03-13T08:19:54.320Z,27.17
2023-03-13T08:20:54.312Z,27.07
2023-03-13T08:21:54.317Z,27.13
2023-03-13T08:22:54.313Z,27.10
2023-03-13T08:23:54.318Z,27.09
2023-03-13T08:24:54.316Z,27.04
2023-03-13T08:25:54.342Z,27.04
2023-03-13T08:26:54.313Z,27.00
2023-03-13T08:27:54.317Z,26.91
2023-03-13T08:28:54.311Z,26.91
2023-03-13T08:29:54.318Z,26.88
2023-03-13T08:30:54.363Z,26.92
2023-03-13T08:31:54.334Z,26.89
2023-03-13T08:32:54.395Z,26.85
2023-03-13T08:33:54.330Z,26.84
2023-03-13T08:34:54.315Z,26.87
2023-03-13T08:35:54.424Z,26.77
2023-03-13T08:36:54.380Z,26.72
2023-03-13T08:37:54.314Z,26.72
2023-03-13T08:38:54.323Z,26.76
2023-03-13T08:39:54.316Z,26.73
2023-03-13T08:40:54.305Z,26.73
2023-03-13T08:41:54.342Z,26.77
2023-03-13T08:42:54.306Z,26.72
2023-03-13T08:43:54.326Z,26.77
2023-03-13T08:44:54.311Z,26.60
2023-03-13T08:45:54.346Z,26.72
2023-03-13T08:46:54.308Z,26.67
2023-03-13T08:47:54.330Z,26.75
2023-03-13T08:48:54.508Z,26.73
2023-03-13T08:49:54.319Z,26.72
2023-03-13T08:50:54.311Z,26.73
2023-03-13T08:51:54.318Z,26.72
2023-03-13T08:52:54.310Z,26.75
2023-03-13T08:53:54.320Z,26.73
2023-03-13T08:54:54.311Z,26.70
2023-03-13T08:55:54.317Z,26.72
2023-03-13T08:56:54.322Z,26.76
2023-03-13T08:57:54.341Z,26.77
2023-03-13T08:58:54.417Z,26.75
2023-03-13T08:59:54.318Z,26.77
2023-03-13T09:00:54.314Z,26.82
2023-03-13T09:01:54.320Z,26.80
2023-03-13T09:02:54.431Z,26.80
2023-03-13T09:03:54.387Z,26.89
2023-03-13T09:04:54.313Z,26.88
2023-03-13T09:05:56.290Z,26.91
2023-03-13T09:06:54.313Z,27.06
2023-03-13T09:07:54.318Z,27.09
2023-03-13T09:08:54.308Z,27.10
2023-03-13T09:09:54.323Z,27.13
2023-03-13T09:10:54.312Z,27.13
2023-03-13T09:11:54.318Z,27.21
2023-03-13T09:12:54.310Z,27.13
2023-03-13T09:13:54.344Z,27.12
2023-03-13T09:14:54.311Z,27.21
2023-03-13T09:15:54.352Z,27.21
2023-03-13T09:16:54.310Z,27.19
2023-03-13T09:17:54.360Z,27.19
2023-03-13T09:18:54.312Z,27.24
2023-03-13T09:20:00.492Z,27.25
2023-03-13T09:20:54.310Z,27.28
2023-03-13T09:21:54.317Z,27.21
2023-03-13T09:22:54.315Z,27.29
2023-03-13T09:23:54.318Z,27.36
2023-03-13T09:24:54.310Z,27.34
2023-03-13T09:25:54.318Z,27.37
2023-03-13T09:27:01.117Z,27.37
2023-03-13T09:27:54.329Z,27.46
2023-03-13T09:28:54.324Z,27.49
2023-03-13T09:29:54.334Z,27.39
2023-03-13T09:30:54.380Z,27.37
2023-03-13T09:31:54.311Z,27.43
2023-03-13T09:32:54.391Z,27.44
2023-03-13T09:33:54.327Z,27.47
2023-03-13T09:34:54.319Z,27.43
2023-03-13T09:35:54.395Z,27.37
2023-03-13T09:36:54.321Z,27.41
2023-03-13T09:37:54.319Z,27.46
2023-03-13T09:38:54.317Z,27.44
2023-03-13T09:39:54.312Z,27.46
2023-03-13T09:41:05.636Z,27.34
2023-03-13T09:41:54.311Z,27.43
2023-03-13T09:42:54.319Z,27.43
2023-03-13T09:43:54.313Z,27.40
2023-03-13T09:44:54.328Z,27.46
2023-03-13T09:45:54.342Z,27.41
2023-03-13T09:46:54.506Z,27.37
2023-03-13T09:47:54.314Z,27.40
2023-03-13T09:48:54.320Z,27.36
2023-03-13T09:49:54.430Z,27.37
2023-03-13T09:50:54.321Z,27.37
2023-03-13T09:51:54.314Z,27.36
2023-03-13T09:52:54.334Z,27.39
2023-03-13T09:53:54.313Z,27.31
2023-03-13T09:54:54.321Z,27.28
2023-03-13T09:55:54.314Z,27.29
2023-03-13T09:56:54.328Z,27.28
2023-03-13T09:57:54.338Z,27.25
2023-03-13T09:58:54.319Z,27.22
2023-03-13T09:59:54.314Z,27.25
2023-03-13T10:00:54.324Z,27.24
2023-03-13T10:01:54.618Z,27.18
2023-03-13T10:02:54.322Z,27.22
2023-03-13T10:03:54.352Z,27.36
2023-03-13T10:04:54.403Z,27.19
2023-03-13T10:05:54.320Z,27.24
2023-03-13T10:06:54.320Z,27.24
2023-03-13T10:07:54.314Z,27.19
2023-03-13T10:08:54.325Z,27.19
2023-03-13T10:09:54.315Z,27.22
2023-03-13T10:10:54.322Z,27.31
2023-03-13T10:11:54.318Z,27.36
2023-03-13T10:12:54.323Z,27.28
2023-03-13T10:13:54.314Z,27.24
2023-03-13T10:14:54.325Z,27.28
2023-03-13T10:15:54.378Z,27.25
2023-03-13T10:16:54.321Z,27.24
2023-03-13T10:17:54.362Z,27.19
2023-03-13T10:18:54.322Z,27.19
2023-03-13T10:19:54.316Z,27.22
2023-03-13T10:20:54.322Z,27.22
2023-03-13T10:21:54.312Z,27.12
2023-03-13T10:22:54.320Z,27.13
2023-03-13T10:23:54.321Z,27.09
2023-03-13T10:24:54.321Z,27.07
2023-03-13T10:25:54.314Z,27.14
2023-03-13T10:26:54.322Z,27.18
2023-03-13T10:27:54.315Z,27.13
2023-03-13T10:28:54.327Z,27.18
2023-03-13T10:29:54.316Z,27.06
2023-03-13T10:30:54.521Z,27.13
2023-03-13T10:31:54.316Z,27.10
2023-03-13T10:32:54.361Z,27.10
2023-03-13T10:33:54.338Z,26.92
2023-03-13T10:34:54.322Z,26.95
2023-03-13T10:35:54.353Z,26.91
2023-03-13T10:36:54.328Z,26.95
2023-03-13T10:37:54.316Z,26.89
2023-03-13T10:38:54.321Z,26.94
2023-03-13T10:39:54.317Z,26.88
2023-03-13T10:40:54.324Z,26.89
2023-03-13T10:41:54.316Z,26.91
2023-03-13T10:42:54.322Z,26.87
2023-03-13T10:43:54.318Z,26.88
2023-03-13T10:44:54.323Z,26.87
2023-03-13T10:45:54.316Z,26.88
2023-03-13T10:46:54.383Z,26.76
2023-03-13T10:47:54.324Z,26.82
2023-03-13T10:48:54.322Z,26.82
2023-03-13T10:49:54.350Z,26.84
2023-03-13T10:50:54.322Z,26.82
2023-03-13T10:51:54.323Z,26.87
2023-03-13T10:52:54.321Z,26.82
2023-03-13T10:53:54.324Z,26.81
2023-03-13T10:54:54.323Z,26.80
2023-03-13T10:55:54.324Z,26.69
2023-03-13T10:56:54.327Z,26.70
2023-03-13T10:57:54.314Z,26.76
2023-03-13T10:58:54.320Z,26.70
2023-03-13T10:59:54.315Z,26.77
2023-03-13T11:00:54.321Z,26.75
2023-03-13T11:01:54.322Z,26.75
2023-03-13T11:02:54.511Z,26.76
2023-03-13T11:03:54.391Z,26.75
2023-03-13T11:04:54.325Z,26.76
2023-03-13T11:05:54.336Z,26.73
2023-03-13T11:06:54.319Z,26.73
2023-03-13T11:07:54.312Z,26.75
2023-03-13T11:08:54.318Z,26.75
2023-03-13T11:09:54.311Z,26.73
2023-03-13T11:10:54.322Z,26.67
2023-03-13T11:11:54.311Z,26.72
2023-03-13T11:12:54.318Z,26.63
2023-03-13T11:13:54.324Z,26.73
2023-03-13T11:14:54.401Z,26.62
2023-03-13T11:15:54.370Z,26.69
2023-03-13T11:16:54.328Z,26.65
2023-03-13T11:17:54.313Z,26.70
2023-03-13T11:18:54.323Z,26.72
2023-03-13T11:19:54.318Z,26.76
2023-03-13T11:20:54.335Z,26.66
2023-03-13T11:21:54.508Z,26.75
2023-03-13T11:22:54.321Z,26.73
2023-03-13T11:23:54.311Z,26.70
2023-03-13T11:24:54.314Z,26.69
2023-03-13T11:25:54.330Z,26.76
2023-03-13T11:27:04.082Z,26.80
2023-03-13T11:27:54.318Z,26.72
2023-03-13T11:28:54.324Z,26.75
2023-03-13T11:29:54.383Z,26.76
2023-03-13T11:30:54.355Z,26.69
2023-03-13T11:31:54.369Z,26.65
2023-03-13T11:32:54.349Z,26.77
2023-03-13T11:33:54.308Z,26.75
2023-03-13T11:34:54.314Z,26.77
2023-03-13T11:35:54.380Z,26.77
2023-03-13T11:36:54.313Z,26.82
2023-03-13T11:37:54.337Z,26.73
2023-03-13T11:38:54.318Z,26.76
2023-03-13T11:39:54.307Z,26.82
2023-03-13T11:40:54.315Z,26.77
2023-03-13T11:41:54.337Z,26.82
2023-03-13T11:42:54.317Z,26.73
2023-03-13T11:43:54.306Z,26.77
2023-03-13T11:44:54.314Z,26.77
2023-03-13T11:45:54.504Z,26.60
2023-03-13T11:46:54.420Z,26.72
2023-03-13T11:47:54.324Z,26.75
2023-03-13T11:48:54.332Z,26.76
2023-03-13T11:49:54.326Z,26.72
2023-03-13T11:50:54.312Z,26.75
2023-03-13T11:51:54.317Z,26.76
2023-03-13T11:52:54.335Z,26.81
2023-03-13T11:53:54.332Z,26.73
2023-03-13T11:54:54.316Z,26.65
2023-03-13T11:55:54.314Z,26.63
2023-03-13T11:56:54.312Z,26.75
2023-03-13T11:57:54.306Z,26.63
2023-03-13T11:58:54.313Z,26.65
2023-03-13T11:59:54.304Z,26.63
2023-03-13T12:00:54.408Z,26.70
2023-03-13T12:01:54.415Z,26.69
2023-03-13T12:02:54.310Z,26.66
2023-03-13T12:03:54.405Z,26.62
2023-03-13T12:04:54.383Z,26.58
2023-03-13T12:05:54.316Z,26.62
2023-03-13T12:06:54.310Z,26.67
2023-03-13T12:07:54.301Z,26.63
2023-03-13T12:08:54.308Z,26.55
2023-03-13T12:09:54.325Z,26.58
2023-03-13T12:10:54.308Z,26.54
2023-03-13T12:11:54.302Z,26.70
2023-03-13T12:12:54.312Z,26.48
2023-03-13T12:13:54.300Z,26.54
2023-03-13T12:14:54.307Z,26.57
2023-03-13T12:15:54.299Z,26.54
2023-03-13T12:16:54.398Z,26.58
2023-03-13T12:17:54.380Z,26.58
2023-03-13T12:18:54.304Z,26.60
2023-03-13T12:19:54.302Z,26.55
2023-03-13T12:20:54.304Z,26.55
2023-03-13T12:21:54.339Z,26.58
2023-03-13T12:22:54.313Z,26.51
2023-03-13T12:23:54.341Z,26.50
2023-03-13T12:24:54.306Z,26.50
2023-03-13T12:25:54.480Z,26.52
2023-03-13T12:26:54.309Z,26.40
2023-03-13T12:27:54.313Z,26.48
2023-03-13T12:28:54.303Z,26.55
2023-03-13T12:29:54.301Z,26.51
2023-03-13T12:30:54.346Z,26.37
2023-03-13T12:31:54.297Z,26.45
2023-03-13T12:32:54.396Z,26.51
2023-03-13T12:33:54.317Z,26.48
2023-03-13T12:34:54.308Z,26.50
2023-03-13T12:35:54.328Z,26.40
2023-03-13T12:36:54.302Z,26.48
2023-03-13T12:37:54.298Z,26.50
2023-03-13T12:38:54.305Z,26.45
2023-03-13T12:39:54.299Z,26.47
2023-03-13T12:40:54.301Z,26.48
2023-03-13T12:41:54.324Z,26.50
2023-03-13T12:42:54.303Z,26.50
2023-03-13T12:44:07.775Z,26.43
2023-03-13T12:44:54.301Z,26.48
2023-03-13T12:45:54.419Z,26.48
2023-03-13T12:46:54.444Z,26.51
2023-03-13T12:47:54.338Z,26.54
2023-03-13T12:48:54.302Z,26.62
2023-03-13T12:49:54.296Z,26.57
2023-03-13T12:50:54.301Z,26.48
2023-03-13T12:51:54.295Z,26.52
2023-03-13T12:52:54.300Z,26.65